createdAt,value
2022-12-26T00:04:51.069Z,-9.71
2022-12-26T00:10:09.619Z,-9.78
2022-12-26T00:15:31.784Z,-9.78
2022-12-26T00:20:54.263Z,-9.99
2022-12-26T00:26:22.118Z,-10.30
2022-12-26T00:31:44.318Z,-10.70
2022-12-26T00:37:06.904Z,-10.85
2022-12-26T00:42:28.823Z,-10.92
2022-12-26T00:47:51.085Z,-11.02
2022-12-26T00:53:13.443Z,-11.09
2022-12-26T00:58:36.979Z,-11.22
2022-12-26T01:03:59.439Z,-11.44
2022-12-26T01:09:21.763Z,-11.67
2022-12-26T01:14:43.783Z,-11.73
2022-12-26T01:20:06.616Z,-11.86
2022-12-26T01:25:28.823Z,-12.06
2022-12-26T01:30:51.497Z,-12.05
2022-12-26T01:36:23.415Z,-11.86
2022-12-26T01:41:45.913Z,-11.85
2022-12-26T01:47:07.737Z,-11.97
2022-12-26T01:52:37.950Z,-11.94
2022-12-26T01:58:10.446Z,-11.83
2022-12-26T02:03:51.638Z,-11.68
2022-12-26T02:09:13.964Z,-11.56
2022-12-26T02:14:37.733Z,-11.50
2022-12-26T02:20:11.719Z,-11.44
2022-12-26T02:25:36.651Z,-11.46
2022-12-26T02:31:22.963Z,-11.44
2022-12-26T02:37:12.561Z,-11.44
2022-12-26T02:42:34.791Z,-11.60
2022-12-26T02:48:44.829Z,-11.84
2022-12-26T02:54:44.187Z,-11.82
2022-12-26T03:00:31.854Z,-11.94
2022-12-26T03:06:19.750Z,-12.02
2022-12-26T03:12:02.703Z,-11.98
2022-12-26T03:17:43.902Z,-11.90
2022-12-26T03:23:15.970Z,-12.14
2022-12-26T03:28:40.080Z,-12.08
2022-12-26T03:34:19.295Z,-12.15
2022-12-26T03:40:21.783Z,-11.95
2022-12-26T03:46:21.558Z,-11.96
2022-12-26T03:52:18.584Z,-12.17
2022-12-26T03:58:10.874Z,-12.32
2022-12-26T04:03:53.666Z,-12.40
2022-12-26T04:10:29.827Z,-12.20
2022-12-26T04:16:24.984Z,-12.06
2022-12-26T04:22:12.513Z,-11.82
2022-12-26T04:27:53.571Z,-11.76
2022-12-26T04:33:43.422Z,-11.68
2022-12-26T04:39:28.152Z,-11.57
2022-12-26T04:44:51.458Z,-11.34
2022-12-26T04:50:14.805Z,-11.43
2022-12-26T04:55:37.016Z,-11.24
2022-12-26T05:01:18.885Z,-11.08
2022-12-26T05:07:05.711Z,-11.02
2022-12-26T05:12:35.084Z,-10.77
2022-12-26T05:18:15.812Z,-10.79
2022-12-26T05:24:00.339Z,-10.58
2022-12-26T05:29:26.482Z,-10.57
2022-12-26T05:34:50.604Z,-10.42
2022-12-26T05:40:12.987Z,-10.19
2022-12-26T05:45:34.732Z,-10.09
2022-12-26T05:51:05.072Z,-10.06
2022-12-26T05:56:27.593Z,-10.06
2022-12-26T06:01:49.684Z,-10.00
2022-12-26T06:07:11.999Z,-10.04
2022-12-26T06:12:34.888Z,-9.72
2022-12-26T06:17:57.288Z,-9.64
2022-12-26T06:23:19.261Z,-9.61
2022-12-26T06:28:43.282Z,-9.50
2022-12-26T06:34:06.588Z,-9.40
2022-12-26T06:39:29.174Z,-9.39
2022-12-26T06:44:51.463Z,-9.21
2022-12-26T06:50:13.977Z,-9.14
2022-12-26T06:55:35.956Z,-9.07
2022-12-26T07:01:08.001Z,-8.92
2022-12-26T07:06:35.649Z,-8.78
2022-12-26T07:12:00.175Z,-8.69
2022-12-26T07:41:59.497Z,-7.95
2022-12-26T07:47:21.634Z,-7.77
2022-12-26T07:52:43.785Z,-7.72
2022-12-26T07:58:10.331Z,-7.67
2022-12-26T08:03:38.983Z,-7.62
2022-12-26T08:09:11.950Z,-7.42
2022-12-26T08:14:54.217Z,-7.40
2022-12-26T08:20:16.129Z,-7.36
2022-12-26T08:25:38.134Z,-7.18
2022-12-26T08:31:10.696Z,-7.17
2022-12-26T08:36:33.106Z,-7.00
2022-12-26T08:41:57.810Z,-6.93
2022-12-26T08:47:20.587Z,-6.89
2022-12-26T08:52:43.632Z,-6.92
2022-12-26T08:58:05.924Z,-6.73
2022-12-26T09:03:28.065Z,-6.77
2022-12-26T09:08:50.609Z,-6.59
2022-12-26T09:14:13.136Z,-6.84
2022-12-26T09:19:38.430Z,-6.84
2022-12-26T09:25:00.523Z,-6.75
2022-12-26T09:30:24.464Z,-6.56
2022-12-26T09:35:47.002Z,-6.68
2022-12-26T09:41:43.623Z,-6.45
2022-12-26T09:47:27.085Z,-6.45
2022-12-26T09:53:00.172Z,-6.49
2022-12-26T09:58:30.602Z,-6.40
2022-12-26T10:03:57.381Z,-6.51
2022-12-26T10:09:50.229Z,-6.65
2022-12-26T10:15:14.891Z,-6.42
2022-12-26T10:20:46.225Z,-6.57
2022-12-26T10:26:19.422Z,-6.46
2022-12-26T10:32:07.674Z,-6.41
2022-12-26T10:37:41.110Z,-6.68
2022-12-26T10:43:24.191Z,-6.49
2022-12-26T10:48:47.413Z,-6.49
2022-12-26T10:54:15.442Z,-6.54
2022-12-26T10:59:44.758Z,-6.56
2022-12-26T11:11:27.056Z,-6.59
2022-12-26T11:16:49.925Z,-6.68
2022-12-26T11:22:23.612Z,-6.69
2022-12-26T11:28:24.814Z,-6.73
2022-12-26T11:33:47.510Z,-6.68
2022-12-26T11:39:38.105Z,-6.64
2022-12-26T11:45:04.366Z,-6.85
2022-12-26T11:50:29.899Z,-6.83
2022-12-26T11:56:02.132Z,-6.81
2022-12-26T12:01:45.211Z,-6.86
2022-12-26T12:07:53.062Z,-6.80
2022-12-26T12:13:57.197Z,-6.75
2022-12-26T12:19:38.320Z,-6.88
2022-12-26T12:25:29.587Z,-6.94
2022-12-26T12:31:30.660Z,-6.87
2022-12-26T12:37:38.651Z,-6.78
2022-12-26T12:43:34.843Z,-6.78
2022-12-26T12:49:05.215Z,-6.85
2022-12-26T12:54:32.944Z,-6.78
2022-12-26T13:00:14.372Z,-6.84
2022-12-26T13:05:56.502Z,-6.86
2022-12-26T13:11:40.943Z,-6.86
2022-12-26T13:17:15.038Z,-6.88
2022-12-26T13:23:03.565Z,-6.77
2022-12-26T13:28:32.901Z,-6.76
2022-12-26T13:33:55.084Z,-6.84
2022-12-26T13:39:26.694Z,-6.79
2022-12-26T13:44:53.639Z,-6.80
2022-12-26T13:50:56.416Z,-6.73
2022-12-26T13:56:19.443Z,-6.73
2022-12-26T14:01:55.055Z,-6.78
2022-12-26T14:07:54.985Z,-6.79
2022-12-26T14:13:56.812Z,-6.81
2022-12-26T14:19:52.042Z,-6.78
2022-12-26T14:25:20.118Z,-6.86
2022-12-26T14:31:11.823Z,-6.91
2022-12-26T14:37:03.824Z,-6.71
2022-12-26T14:42:44.779Z,-6.66
2022-12-26T14:48:15.991Z,-6.70
2022-12-26T14:53:38.793Z,-6.80
2022-12-26T14:59:35.415Z,-6.66
2022-12-26T15:05:15.834Z,-6.68
2022-12-26T15:11:01.626Z,-6.68
2022-12-26T15:16:31.488Z,-6.68
2022-12-26T15:22:04.231Z,-6.67
2022-12-26T15:27:48.235Z,-6.66
2022-12-26T15:33:23.764Z,-6.70
2022-12-26T15:39:04.616Z,-6.67
2022-12-26T15:44:47.229Z,-6.82
2022-12-26T15:50:25.667Z,-6.76
2022-12-26T15:56:15.175Z,-6.68
2022-12-26T16:01:38.717Z,-6.64
2022-12-26T16:07:10.136Z,-6.67
2022-12-26T16:12:35.940Z,-6.83
2022-12-26T16:18:20.971Z,-6.89
2022-12-26T16:23:46.482Z,-6.87
2022-12-26T16:29:10.631Z,-6.79
2022-12-26T16:34:36.630Z,-6.78
2022-12-26T16:40:18.542Z,-6.72
2022-12-26T16:45:41.234Z,-6.73
2022-12-26T16:51:27.746Z,-6.72
2022-12-26T16:56:57.653Z,-6.84
2022-12-26T17:02:37.521Z,-6.75
2022-12-26T17:08:02.149Z,-6.80
2022-12-26T17:13:28.133Z,-6.82
2022-12-26T17:18:55.968Z,-6.82
2022-12-26T17:24:26.262Z,-6.73
2022-12-26T17:29:56.842Z,-6.69
2022-12-26T17:35:24.562Z,-6.70
2022-12-26T17:40:47.897Z,-6.66
2022-12-26T17:46:16.898Z,-6.87
2022-12-26T17:51:39.153Z,-6.63
2022-12-26T17:57:01.563Z,-6.73
2022-12-26T18:02:24.312Z,-6.77
2022-12-26T18:07:47.983Z,-6.82
2022-12-26T18:13:16.409Z,-6.72
2022-12-26T18:18:41.648Z,-6.67
2022-12-26T18:24:07.253Z,-6.77
2022-12-26T18:29:29.521Z,-6.64
2022-12-26T18:34:53.109Z,-6.75
2022-12-26T18:40:39.925Z,-6.73
2022-12-26T18:46:02.389Z,-6.56
2022-12-26T18:51:26.086Z,-6.65
2022-12-26T18:56:48.263Z,-6.53
2022-12-26T19:02:17.507Z,-6.52
2022-12-26T19:07:40.098Z,-6.73
2022-12-26T19:13:06.479Z,-6.46
2022-12-26T19:18:28.631Z,-6.47
2022-12-26T19:23:51.043Z,-6.58
2022-12-26T19:29:12.973Z,-6.56
2022-12-26T19:34:34.737Z,-6.43
2022-12-26T19:39:57.347Z,-6.41
2022-12-26T19:45:19.462Z,-6.56
2022-12-26T19:50:41.794Z,-6.42
2022-12-26T19:56:15.562Z,-6.52
2022-12-26T20:01:37.854Z,-6.47
2022-12-26T20:07:01.363Z,-6.46
2022-12-26T20:12:23.500Z,-6.67
2022-12-26T20:17:45.645Z,-6.46
2022-12-26T20:23:08.008Z,-6.64
2022-12-26T20:28:30.398Z,-6.70
2022-12-26T20:33:53.115Z,-6.89
2022-12-26T20:39:18.343Z,-6.77
2022-12-26T20:44:42.040Z,-6.87
2022-12-26T20:50:04.663Z,-6.86
2022-12-26T20:55:26.573Z,-6.81
2022-12-26T21:00:48.883Z,-6.81
2022-12-26T21:06:15.918Z,-6.81
2022-12-26T21:11:39.732Z,-6.70
2022-12-26T21:17:02.140Z,-6.83
2022-12-26T21:22:24.443Z,-6.97
2022-12-26T21:27:49.607Z,-6.80
2022-12-26T21:33:14.833Z,-6.88
2022-12-26T21:38:37.286Z,-6.98
2022-12-26T21:44:00.038Z,-6.82
2022-12-26T21:49:22.169Z,-6.73
2022-12-26T21:55:02.632Z,-6.90
2022-12-26T22:00:24.883Z,-6.87
2022-12-26T22:05:47.184Z,-6.84
2022-12-26T22:11:36.176Z,-6.91
2022-12-26T22:16:58.446Z,-6.75
2022-12-26T22:22:20.126Z,-6.79
2022-12-26T22:27:42.335Z,-6.72
2022-12-26T22:33:04.657Z,-6.90
2022-12-26T22:38:28.481Z,-6.80
2022-12-26T22:43:54.993Z,-6.97
2022-12-26T22:49:17.035Z,-6.73
2022-12-26T22:54:40.041Z,-6.80
2022-12-26T23:00:08.750Z,-6.69
2022-12-26T23:05:31.684Z,-6.62
2022-12-26T23:10:56.639Z,-6.77
2022-12-26T23:16:32.745Z,-6.78
2022-12-26T23:21:55.440Z,-6.91
2022-12-26T23:27:36.457Z,-6.89
2022-12-26T23:32:59.275Z,-6.95
2022-12-26T23:38:21.213Z,-6.96
2022-12-26T23:43:43.458Z,-6.91
2022-12-26T23:49:05.677Z,-6.97
2022-12-26T23:54:28.106Z,-7.05
2022-12-26T23:59:49.799Z,-7.04
